createdAt,value
2018-12-25T00:00:36.455Z,7.1
2018-12-25T00:01:34.990Z,7.09
2018-12-25T00:02:33.722Z,7.05
2018-12-25T00:03:32.418Z,6.79
2018-12-25T00:04:30.981Z,6.89
2018-12-25T00:05:29.690Z,6.8
2018-12-25T00:06:28.442Z,6.59
2018-12-25T00:07:27.053Z,6.66
2018-12-25T00:08:25.784Z,6.76
2018-12-25T00:09:24.468Z,6.71
2018-12-25T00:10:23.033Z,6.64
2018-12-25T00:11:21.909Z,6.64
2018-12-25T00:12:20.439Z,6.79
2018-12-25T00:13:19.056Z,6.76
2018-12-25T00:14:17.547Z,6.77
2018-12-25T00:15:16.051Z,6.76
2018-12-25T00:16:14.595Z,6.8
2018-12-25T00:17:13.141Z,6.8
2018-12-25T00:18:11.684Z,6.85
2018-12-25T00:19:10.250Z,6.87
2018-12-25T00:20:08.792Z,7.02
2018-12-25T00:21:07.481Z,7.05
2018-12-25T00:22:06.324Z,7.13
2018-12-25T00:23:04.812Z,7.06
2018-12-25T00:24:03.513Z,7.13
2018-12-25T00:25:02.229Z,7.17
2018-12-25T00:26:00.763Z,6.91
2018-12-25T00:26:59.299Z,6.94
2018-12-25T00:27:57.850Z,7.05
2018-12-25T00:28:56.364Z,6.99
2018-12-25T00:29:54.951Z,7.1
2018-12-25T00:30:53.686Z,7.09
2018-12-25T00:31:52.601Z,7.09
2018-12-25T00:32:50.948Z,6.84
2018-12-25T00:33:49.638Z,6.99
2018-12-25T00:34:48.281Z,7.03
2018-12-25T00:35:46.821Z,6.94
2018-12-25T00:36:45.379Z,6.8
2018-12-25T00:37:43.903Z,6.8
2018-12-25T00:38:42.429Z,6.8
2018-12-25T00:39:40.950Z,6.74
2018-12-25T00:40:39.468Z,6.88
2018-12-25T00:41:38.039Z,6.84
2018-12-25T00:42:36.591Z,6.8
2018-12-25T00:43:35.212Z,6.91
2018-12-25T00:44:33.843Z,6.94
2018-12-25T00:45:32.456Z,6.76
2018-12-25T00:46:30.960Z,6.66
2018-12-25T00:47:29.507Z,6.59
2018-12-25T00:48:28.244Z,6.64
2018-12-25T00:49:26.859Z,6.71
2018-12-25T00:50:25.477Z,6.56
2018-12-25T00:51:24.107Z,6.62
2018-12-25T00:52:22.612Z,6.66
2018-12-25T00:53:21.140Z,6.66
2018-12-25T00:54:19.790Z,6.73
2018-12-25T00:55:18.303Z,6.81
2018-12-25T00:56:16.844Z,6.85
2018-12-25T00:57:15.498Z,6.8
2018-12-25T00:58:14.120Z,6.74
2018-12-25T00:59:12.647Z,6.66
2018-12-25T01:00:11.195Z,6.74
2018-12-25T01:01:10.113Z,6.74
2018-12-25T01:02:08.641Z,6.8
2018-12-25T01:03:07.172Z,6.76
2018-12-25T01:04:05.776Z,6.62
2018-12-25T01:05:04.316Z,6.56
2018-12-25T01:06:02.856Z,6.58
2018-12-25T01:07:01.402Z,6.52
2018-12-25T01:07:59.988Z,6.64
2018-12-25T01:08:58.486Z,6.67
2018-12-25T01:09:57.037Z,6.73
2018-12-25T01:10:55.546Z,6.76
2018-12-25T01:11:54.203Z,6.73
2018-12-25T01:12:52.655Z,6.73
2018-12-25T01:13:51.289Z,6.69
2018-12-25T01:14:49.905Z,6.71
2018-12-25T01:15:48.529Z,6.67
2018-12-25T01:16:47.084Z,6.69
2018-12-25T01:17:45.970Z,6.64
2018-12-25T01:18:44.856Z,6.46
2018-12-25T01:19:43.530Z,6.51
2018-12-25T01:20:42.295Z,6.64
2018-12-25T01:21:40.816Z,6.64
2018-12-25T01:22:39.471Z,6.69
2018-12-25T01:23:38.152Z,6.71
2018-12-25T01:24:36.679Z,6.69
2018-12-25T01:25:35.200Z,6.77
2018-12-25T01:26:33.805Z,6.8
2018-12-25T01:27:32.294Z,6.73
2018-12-25T01:28:30.849Z,6.69
2018-12-25T01:29:29.347Z,6.67
2018-12-25T01:30:27.905Z,6.79
2018-12-25T01:31:26.451Z,6.69
2018-12-25T01:32:24.974Z,6.7
2018-12-25T01:33:23.502Z,6.61
2018-12-25T01:34:21.997Z,6.71
2018-12-25T01:35:20.603Z,6.74
2018-12-25T01:36:19.122Z,6.64
2018-12-25T01:37:17.785Z,6.67
2018-12-25T01:38:16.542Z,6.66
2018-12-25T01:39:15.063Z,6.69
2018-12-25T01:40:13.774Z,6.71
2018-12-25T01:41:13.209Z,6.66
2018-12-25T01:42:11.955Z,6.62
2018-12-25T01:43:10.515Z,6.64
2018-12-25T01:44:09.085Z,6.58
2018-12-25T01:45:07.616Z,6.59
2018-12-25T01:46:06.154Z,6.69
2018-12-25T01:47:04.668Z,6.59
2018-12-25T01:48:03.367Z,6.58
2018-12-25T01:49:02.277Z,6.62
2018-12-25T01:50:00.848Z,6.64
2018-12-25T01:50:59.477Z,6.69
2018-12-25T01:51:58.053Z,6.59
2018-12-25T01:52:56.593Z,6.59
2018-12-25T01:53:55.996Z,6.66
2018-12-25T01:54:54.579Z,6.67
2018-12-25T01:55:53.120Z,6.71
2018-12-25T01:56:51.681Z,6.71
2018-12-25T01:57:50.205Z,6.74
2018-12-25T01:58:48.733Z,6.76
2018-12-25T01:59:47.353Z,6.7
2018-12-25T02:00:46.130Z,6.61
2018-12-25T02:01:44.656Z,6.58
2018-12-25T02:02:43.211Z,6.55
2018-12-25T02:03:42.083Z,6.54
2018-12-25T02:04:40.607Z,6.64
2018-12-25T02:05:39.131Z,6.48
2018-12-25T02:06:37.839Z,6.49
2018-12-25T02:07:36.394Z,6.49
2018-12-25T02:08:34.923Z,6.37
2018-12-25T02:09:33.476Z,6.21
2018-12-25T02:10:32.242Z,6.17
2018-12-25T02:11:30.740Z,6.04
2018-12-25T02:12:29.268Z,6.09
2018-12-25T02:13:28.125Z,6.04
2018-12-25T02:14:26.662Z,5.78
2018-12-25T02:15:25.245Z,5.97
2018-12-25T02:16:24.021Z,5.99
2018-12-25T02:17:22.786Z,6.04
2018-12-25T02:18:21.382Z,5.96
2018-12-25T02:19:20.150Z,5.99
2018-12-25T02:20:18.687Z,5.96
2018-12-25T02:21:17.292Z,6.01
2018-12-25T02:22:15.980Z,6.08
2018-12-25T02:23:14.630Z,5.94
2018-12-25T02:24:13.174Z,6
2018-12-25T02:25:11.691Z,5.99
2018-12-25T02:26:10.225Z,5.85
2018-12-25T02:27:08.803Z,5.94
2018-12-25T02:28:07.455Z,6
2018-12-25T02:29:06.135Z,5.86
2018-12-25T02:30:04.684Z,5.85
2018-12-25T02:32:27.649Z,5.97
2018-12-25T02:33:26.199Z,5.97
2018-12-25T02:34:24.761Z,5.85
2018-12-25T02:35:23.289Z,5.97
2018-12-25T02:36:22.002Z,5.97
2018-12-25T02:37:20.671Z,6.08
2018-12-25T02:38:19.167Z,6.09
2018-12-25T02:39:17.987Z,6.11
2018-12-25T02:40:16.523Z,6.12
2018-12-25T02:41:15.069Z,6.11
2018-12-25T02:42:13.740Z,6.18
2018-12-25T02:43:12.290Z,6.08
2018-12-25T02:44:10.885Z,6.15
2018-12-25T02:45:09.412Z,6.14
2018-12-25T02:46:07.932Z,6.17
2018-12-25T02:47:06.478Z,6.17
2018-12-25T02:48:05.022Z,6.15
2018-12-25T02:49:03.729Z,6.25
2018-12-25T02:50:02.389Z,6.17
2018-12-25T02:51:00.965Z,6.14
2018-12-25T02:51:59.740Z,6.17
2018-12-25T02:52:58.482Z,6.18
2018-12-25T02:53:56.987Z,6.12
2018-12-25T02:54:55.526Z,6.17
2018-12-25T02:55:54.056Z,6.14
2018-12-25T02:56:52.650Z,6.11
2018-12-25T02:57:51.185Z,6.12
2018-12-25T02:58:49.908Z,6.08
2018-12-25T02:59:48.640Z,5.97
2018-12-25T03:00:47.275Z,6.01
2018-12-25T03:01:45.973Z,6.08
2018-12-25T03:02:44.668Z,6
2018-12-25T03:03:43.189Z,6.06
2018-12-25T03:04:41.689Z,6
2018-12-25T03:05:40.199Z,5.93
2018-12-25T03:06:38.747Z,5.85
2018-12-25T03:07:37.258Z,5.89
2018-12-25T03:08:35.787Z,5.99
2018-12-25T03:09:34.341Z,5.91
2018-12-25T03:10:32.897Z,5.83
2018-12-25T03:11:31.646Z,5.83
2018-12-25T03:12:30.377Z,5.86
2018-12-25T03:13:28.986Z,5.82
2018-12-25T03:14:27.619Z,5.78
2018-12-25T03:15:26.299Z,5.67
2018-12-25T03:16:24.840Z,5.68
2018-12-25T03:17:23.450Z,5.81
2018-12-25T03:18:22.275Z,5.76
2018-12-25T03:19:20.821Z,5.71
2018-12-25T03:20:19.637Z,5.72
2018-12-25T03:21:18.297Z,5.86
2018-12-25T03:22:16.844Z,5.78
2018-12-25T03:23:15.409Z,5.65
2018-12-25T03:24:14.000Z,5.75
2018-12-25T03:25:12.553Z,5.56
2018-12-25T03:26:11.083Z,5.72
2018-12-25T03:27:09.714Z,5.75
2018-12-25T03:28:08.280Z,5.82
2018-12-25T03:29:06.818Z,5.85
2018-12-25T03:30:05.414Z,5.83
2018-12-25T03:31:04.277Z,5.89
2018-12-25T03:32:02.921Z,5.89
2018-12-25T03:33:01.424Z,5.85
2018-12-25T03:34:00.087Z,5.86
2018-12-25T03:34:58.661Z,5.79
2018-12-25T03:35:57.347Z,5.85
2018-12-25T03:36:56.019Z,5.85
2018-12-25T03:37:54.676Z,5.91
2018-12-25T03:38:53.170Z,5.83
2018-12-25T03:39:51.687Z,5.96
2018-12-25T03:40:50.414Z,5.83
2018-12-25T03:41:48.919Z,6
2018-12-25T03:42:47.602Z,5.83
2018-12-25T03:43:46.292Z,5.75
2018-12-25T03:44:44.831Z,5.91
2018-12-25T03:45:43.383Z,5.96
2018-12-25T03:46:41.886Z,5.67
2018-12-25T03:47:40.398Z,5.78
2018-12-25T03:48:38.930Z,5.79
2018-12-25T03:49:37.480Z,5.83
2018-12-25T03:50:35.991Z,5.74
2018-12-25T03:51:34.541Z,5.65
2018-12-25T03:52:33.048Z,5.68
2018-12-25T03:53:31.567Z,5.64
2018-12-25T03:54:30.105Z,5.75
2018-12-25T03:55:28.613Z,5.89
2018-12-25T03:56:27.179Z,5.78
2018-12-25T03:57:26.016Z,5.78
2018-12-25T03:58:24.556Z,5.76
2018-12-25T03:59:23.069Z,5.82
2018-12-25T04:00:21.949Z,5.63
2018-12-25T04:01:20.552Z,5.76
2018-12-25T04:02:19.133Z,5.72
2018-12-25T04:03:17.622Z,5.71
2018-12-25T04:04:16.199Z,5.74
2018-12-25T04:05:14.798Z,5.79
2018-12-25T04:06:13.534Z,5.75
2018-12-25T04:07:12.393Z,5.65
2018-12-25T04:08:10.896Z,5.81
2018-12-25T04:09:09.595Z,5.81
2018-12-25T04:10:08.222Z,5.86
2018-12-25T04:11:06.748Z,5.82
2018-12-25T04:12:05.283Z,5.78
2018-12-25T04:13:03.809Z,5.67
2018-12-25T04:14:02.405Z,5.65
2018-12-25T04:15:00.927Z,5.63
2018-12-25T04:15:59.487Z,5.75
2018-12-25T04:16:58.191Z,5.75
2018-12-25T04:17:56.742Z,5.68
2018-12-25T04:18:55.254Z,5.72
2018-12-25T04:19:54.210Z,5.76
2018-12-25T04:20:52.764Z,5.75
2018-12-25T04:21:51.282Z,5.61
2018-12-25T04:22:49.946Z,5.39
2018-12-25T04:23:48.531Z,5.39
2018-12-25T04:24:47.082Z,5.53
2018-12-25T04:25:45.656Z,5.58
2018-12-25T04:26:44.260Z,5.6
2018-12-25T04:27:42.814Z,5.57
2018-12-25T04:28:41.343Z,5.63
2018-12-25T04:29:40.205Z,5.72
2018-12-25T04:30:38.732Z,5.67
2018-12-25T04:31:37.385Z,5.63
2018-12-25T04:32:36.082Z,5.51
2018-12-25T04:33:34.618Z,5.51
2018-12-25T04:34:33.187Z,5.56
2018-12-25T04:35:31.698Z,5.58
2018-12-25T04:36:30.248Z,5.65
2018-12-25T04:37:28.767Z,5.61
2018-12-25T04:38:27.324Z,5.53
2018-12-25T04:39:25.997Z,5.49
2018-12-25T04:40:24.635Z,5.46
2018-12-25T04:41:23.147Z,5.51
2018-12-25T04:42:21.747Z,5.51
2018-12-25T04:43:20.493Z,5.39
2018-12-25T04:44:19.043Z,5.43
2018-12-25T04:45:17.658Z,5.36
2018-12-25T04:46:16.324Z,5.46
2018-12-25T04:47:14.838Z,5.46
2018-12-25T04:48:13.389Z,5.38
2018-12-25T04:49:12.000Z,5.43
2018-12-25T04:50:10.519Z,5.36
2018-12-25T04:51:09.078Z,5.43
2018-12-25T04:52:07.766Z,5.53
2018-12-25T04:53:06.542Z,5.48
2018-12-25T04:54:05.101Z,5.53
2018-12-25T04:55:03.776Z,5.45
2018-12-25T04:56:02.551Z,5.54
2018-12-25T04:57:01.095Z,5.48
2018-12-25T04:57:59.609Z,5.39
2018-12-25T04:58:58.183Z,5.38
2018-12-25T04:59:56.744Z,5.38
2018-12-25T05:00:55.303Z,5.39
2018-12-25T05:01:54.006Z,5.43
2018-12-25T05:02:52.958Z,5.49
2018-12-25T05:03:51.498Z,5.45
2018-12-25T05:04:50.121Z,5.49
2018-12-25T05:05:48.698Z,5.53
2018-12-25T05:06:47.241Z,5.6
2018-12-25T05:07:45.754Z,5.58
2018-12-25T05:08:44.299Z,5.57
2018-12-25T05:09:42.848Z,5.53
2018-12-25T05:10:41.436Z,5.48
2018-12-25T05:11:40.109Z,5.56
2018-12-25T05:12:38.636Z,5.58
2018-12-25T05:13:37.182Z,5.63
2018-12-25T05:14:36.049Z,5.63
2018-12-25T05:15:34.564Z,5.57
2018-12-25T05:16:33.128Z,5.61
2018-12-25T05:17:31.795Z,5.57
2018-12-25T05:18:30.380Z,5.54
2018-12-25T05:19:28.935Z,5.49
2018-12-25T05:20:27.615Z,5.46
2018-12-25T05:21:26.283Z,5.39
2018-12-25T05:22:24.863Z,5.33
2018-12-25T05:23:23.430Z,5.35
2018-12-25T05:24:22.284Z,5.22
2018-12-25T05:25:20.792Z,5.35
2018-12-25T05:26:19.355Z,5.02
2018-12-25T05:27:18.053Z,5.06
2018-12-25T05:28:16.615Z,5.15
2018-12-25T05:29:15.174Z,5.21
2018-12-25T05:30:13.804Z,5.1
2018-12-25T05:31:12.357Z,5.2
2018-12-25T05:32:10.901Z,5.31
2018-12-25T05:33:09.434Z,5.22
2018-12-25T05:34:08.073Z,5.3
2018-12-25T05:35:06.743Z,5.27
2018-12-25T05:36:05.439Z,5.21
2018-12-25T05:37:04.202Z,5.35
2018-12-25T05:38:02.754Z,5.42
2018-12-25T05:39:01.272Z,5.38
2018-12-25T05:39:59.764Z,5.39
2018-12-25T05:40:58.286Z,5.27
2018-12-25T05:41:56.838Z,5.39
2018-12-25T05:42:55.578Z,5.31
2018-12-25T05:43:54.212Z,5.4
2018-12-25T05:44:52.772Z,5.35
2018-12-25T05:45:51.277Z,5.18
2018-12-25T05:46:50.177Z,5.27
2018-12-25T05:47:48.691Z,5.22
2018-12-25T05:48:47.237Z,5.25
2018-12-25T05:49:45.902Z,5.21
2018-12-25T05:50:46.736Z,5.2
2018-12-25T05:51:42.987Z,5.2
2018-12-25T05:52:41.524Z,5.24
2018-12-25T05:53:40.050Z,5.27
2018-12-25T05:54:38.619Z,5.25
2018-12-25T05:55:37.185Z,5.2
2018-12-25T05:56:35.833Z,5.09
2018-12-25T05:57:34.574Z,4.84
2018-12-25T05:58:33.088Z,4.89
2018-12-25T05:59:31.889Z,4.94
2018-12-25T06:00:30.522Z,4.84
2018-12-25T06:01:29.026Z,4.77
2018-12-25T06:02:27.797Z,4.91
2018-12-25T06:03:26.368Z,5.03
2018-12-25T06:04:24.880Z,5
2018-12-25T06:05:23.513Z,5.12
2018-12-25T06:06:22.360Z,5.13
2018-12-25T06:07:20.839Z,5.22
2018-12-25T06:08:19.496Z,5.18
2018-12-25T06:09:18.148Z,5.15
2018-12-25T06:10:16.711Z,5.06
2018-12-25T06:11:15.272Z,5.1
2018-12-25T06:12:13.806Z,5.2
2018-12-25T06:13:12.319Z,5.2
2018-12-25T06:14:10.865Z,5.07
2018-12-25T06:15:09.391Z,5.1
2018-12-25T06:16:07.931Z,5.03
2018-12-25T06:17:06.463Z,5.13
2018-12-25T06:18:04.996Z,5.1
2018-12-25T06:19:03.727Z,5.06
2018-12-25T06:20:02.403Z,5.12
2018-12-25T06:21:00.936Z,5.15
2018-12-25T06:21:59.652Z,5.06
2018-12-25T06:22:58.343Z,5.03
2018-12-25T06:23:56.900Z,5.09
2018-12-25T06:24:55.464Z,5.06
2018-12-25T06:25:54.040Z,5.04
2018-12-25T06:26:52.548Z,5
2018-12-25T06:27:51.088Z,4.97
2018-12-25T06:28:49.657Z,5
2018-12-25T06:29:48.158Z,5
2018-12-25T06:30:46.725Z,4.94
2018-12-25T06:31:45.273Z,4.99
2018-12-25T06:32:44.067Z,5.09
2018-12-25T06:33:42.649Z,5.03
2018-12-25T06:34:41.267Z,5.06
2018-12-25T06:35:39.996Z,5
2018-12-25T06:36:38.571Z,4.97
2018-12-25T06:37:37.146Z,5.09
2018-12-25T06:38:35.664Z,5.1
2018-12-25T06:39:34.236Z,5.2
2018-12-25T06:40:32.776Z,5.22
2018-12-25T06:41:31.331Z,5.2
2018-12-25T06:42:29.930Z,5.21
2018-12-25T06:43:28.475Z,5.35
2018-12-25T06:44:27.022Z,5.28
2018-12-25T06:45:25.670Z,5.25
2018-12-25T06:46:24.394Z,5.17
2018-12-25T06:47:22.909Z,5.18
2018-12-25T06:48:21.505Z,5.2
2018-12-25T06:49:20.316Z,5.13
2018-12-25T06:50:18.858Z,5.25
2018-12-25T06:51:17.394Z,5.25
2018-12-25T06:52:15.944Z,5.18
2018-12-25T06:53:14.501Z,5.28
2018-12-25T06:54:13.026Z,5.3
2018-12-25T06:55:11.603Z,5.38
2018-12-25T06:56:10.305Z,5.09
2018-12-25T06:57:08.828Z,5.21
2018-12-25T06:58:07.333Z,5.21
2018-12-25T06:59:06.356Z,5.17
2018-12-25T07:00:06.978Z,5.31
2018-12-25T07:01:03.431Z,5.24
2018-12-25T07:02:02.034Z,5.33
2018-12-25T07:03:00.743Z,5.28
2018-12-25T07:03:59.337Z,5.24
2018-12-25T07:04:58.016Z,5.2
2018-12-25T07:05:56.664Z,5.2
2018-12-25T07:09:35.556Z,5.18
2018-12-25T07:10:34.113Z,5.33
2018-12-25T07:11:32.745Z,5.3
2018-12-25T07:12:31.266Z,5.33
2018-12-25T07:13:29.852Z,5.27
2018-12-25T07:14:28.390Z,5.17
2018-12-25T07:15:32.926Z,5.12
2018-12-25T07:16:25.582Z,5.15
2018-12-25T07:17:24.428Z,5.06
2018-12-25T07:18:23.014Z,5.13
2018-12-25T07:19:21.717Z,5.06
2018-12-25T07:20:20.309Z,5.07
2018-12-25T07:21:18.825Z,5.02
2018-12-25T07:22:17.368Z,5.21
2018-12-25T07:23:16.090Z,5.07
2018-12-25T07:24:14.612Z,5.03
2018-12-25T07:25:13.118Z,4.96
2018-12-25T07:26:11.783Z,4.99
2018-12-25T07:27:10.523Z,4.97
2018-12-25T07:28:09.038Z,4.99
2018-12-25T07:29:07.773Z,4.97
2018-12-25T07:30:06.383Z,5.12
2018-12-25T07:31:04.959Z,5.12
2018-12-25T07:32:03.531Z,5.15
2018-12-25T07:33:02.098Z,5.13
2018-12-25T07:34:00.636Z,5.12
2018-12-25T07:36:41.107Z,5.06
2018-12-25T07:37:39.896Z,5.22
2018-12-25T07:38:38.470Z,5.12
2018-12-25T07:39:36.981Z,5.25
2018-12-25T07:40:35.513Z,5.12
2018-12-25T07:41:34.050Z,5.07
2018-12-25T07:42:32.594Z,5.09
2018-12-25T07:43:31.093Z,5.21
2018-12-25T07:44:29.584Z,5.15
2018-12-25T07:47:11.244Z,5.2
2018-12-25T07:48:08.567Z,5
2018-12-25T07:49:07.117Z,4.89
2018-12-25T07:50:05.871Z,5
2018-12-25T07:51:04.564Z,4.99
2018-12-25T07:52:03.110Z,5.09
2018-12-25T07:53:01.647Z,5.09
2018-12-25T07:54:00.190Z,5.1
2018-12-25T07:54:58.709Z,5.31
2018-12-25T07:55:57.238Z,5.2
2018-12-25T07:56:55.777Z,5.28
2018-12-25T07:57:54.318Z,5.3
2018-12-25T07:58:52.850Z,5.28
2018-12-25T07:59:51.580Z,5.33
2018-12-25T08:00:50.435Z,5.33
2018-12-25T08:01:48.979Z,5.35
2018-12-25T08:02:47.641Z,5.27
2018-12-25T08:03:46.252Z,5.33
2018-12-25T08:15:29.732Z,5.45
2018-12-25T08:16:28.371Z,5.35
2018-12-25T08:17:26.945Z,5.2
2018-12-25T08:18:25.459Z,5.4
2018-12-25T08:19:24.471Z,5.43
2018-12-25T08:20:23.002Z,5.4
2018-12-25T08:21:29.044Z,5.28
2018-12-25T08:22:20.106Z,5.06
2018-12-25T08:23:18.645Z,5.18
2018-12-25T08:24:17.162Z,5.13
2018-12-25T08:25:15.685Z,5.3
2018-12-25T08:26:14.238Z,5.3
2018-12-25T08:27:12.804Z,5.36
2018-12-25T08:28:11.508Z,5.25
2018-12-25T08:29:10.487Z,5.28
2018-12-25T08:30:09.009Z,5.39
2018-12-25T08:31:08.216Z,5.49
2018-12-25T08:32:06.274Z,5.4
2018-12-25T08:33:04.773Z,5.35
2018-12-25T08:34:03.294Z,5.48
2018-12-25T08:35:01.804Z,5.56
2018-12-25T08:36:00.343Z,5.57
2018-12-25T08:36:58.861Z,5.6
2018-12-25T08:37:57.439Z,5.51
2018-12-25T08:38:55.969Z,5.57
2018-12-25T08:39:54.527Z,5.61
2018-12-25T08:40:53.062Z,5.64
2018-12-25T08:41:51.774Z,5.74
2018-12-25T08:42:50.479Z,5.68
2018-12-25T08:43:48.995Z,5.75
2018-12-25T08:44:47.693Z,5.64
2018-12-25T08:45:46.352Z,5.76
2018-12-25T08:46:44.879Z,5.72
2018-12-25T08:47:43.490Z,5.81
2018-12-25T08:48:42.086Z,5.76
2018-12-25T08:49:40.619Z,5.64
2018-12-25T08:50:39.146Z,5.63
2018-12-25T08:51:38.070Z,5.56
2018-12-25T08:52:36.479Z,5.53
2018-12-25T08:53:35.020Z,5.45
2018-12-25T08:54:33.544Z,5.6
2018-12-25T08:55:32.335Z,5.56
2018-12-25T08:56:30.904Z,5.49
2018-12-25T08:57:29.468Z,5.57
2018-12-25T08:58:28.172Z,5.63
2018-12-25T08:59:26.726Z,5.6
2018-12-25T09:00:25.249Z,5.56
2018-12-25T09:01:23.767Z,5.68
2018-12-25T09:02:22.416Z,5.72
2018-12-25T09:04:05.914Z,5.75
2018-12-25T09:05:04.609Z,5.71
2018-12-25T09:06:03.107Z,5.72
2018-12-25T09:07:01.641Z,5.79
2018-12-25T09:08:00.429Z,5.81
2018-12-25T09:08:58.997Z,5.82
2018-12-25T09:09:57.610Z,5.83
2018-12-25T09:10:56.259Z,5.75
2018-12-25T09:11:54.794Z,5.82
2018-12-25T09:12:53.350Z,5.76
2018-12-25T09:13:51.915Z,5.75
2018-12-25T09:14:50.457Z,5.79
2018-12-25T09:15:49.013Z,5.65
2018-12-25T09:16:47.732Z,5.72
2018-12-25T09:20:27.014Z,5.85
2018-12-25T09:21:25.746Z,5.75
2018-12-25T09:22:24.542Z,5.85
2018-12-25T09:23:23.053Z,5.83
2018-12-25T09:24:21.705Z,5.81
2018-12-25T09:25:20.362Z,5.83
2018-12-25T09:26:18.915Z,5.93
2018-12-25T09:27:17.439Z,5.78
2018-12-25T09:28:15.988Z,5.85
2018-12-25T09:29:14.544Z,5.9
2018-12-25T09:30:13.071Z,5.97
2018-12-25T09:31:11.790Z,6
2018-12-25T09:32:10.497Z,5.89
2018-12-25T09:33:09.014Z,5.94
2018-12-25T09:34:07.599Z,5.99
2018-12-25T09:35:06.388Z,6.01
2018-12-25T09:36:04.947Z,6
2018-12-25T09:37:03.489Z,5.99
2018-12-25T09:38:02.152Z,6.03
2018-12-25T09:39:00.668Z,6.01
2018-12-25T09:39:59.200Z,6.14
2018-12-25T09:40:57.781Z,6.21
2018-12-25T09:41:56.364Z,6.25
2018-12-25T09:42:54.917Z,6.3
2018-12-25T09:43:53.471Z,6.22
2018-12-25T09:44:52.210Z,6.12
2018-12-25T09:45:50.858Z,6.08
2018-12-25T09:46:49.498Z,6.14
2018-12-25T09:47:48.272Z,6.06
2018-12-25T09:48:46.859Z,6.19
2018-12-25T09:49:45.396Z,6.25
2018-12-25T09:50:43.909Z,6.19
2018-12-25T09:51:42.437Z,6.15
2018-12-25T09:52:40.944Z,6.11
2018-12-25T09:53:39.651Z,5.99
2018-12-25T09:54:38.541Z,6.17
2018-12-25T09:55:37.091Z,6.03
2018-12-25T09:56:35.767Z,6.08
2018-12-25T09:57:34.427Z,6.21
2018-12-25T09:58:33.018Z,6.21
2018-12-25T09:59:31.735Z,6.11
2018-12-25T10:00:30.302Z,6.14
2018-12-25T10:01:28.839Z,6.17
2018-12-25T10:02:27.392Z,6.27
2018-12-25T10:03:26.334Z,6.18
2018-12-25T10:04:24.829Z,6.17
2018-12-25T10:05:23.465Z,6.18
2018-12-25T10:06:22.034Z,6.33
2018-12-25T10:07:20.661Z,6.34
2018-12-25T10:08:19.261Z,6.44
2018-12-25T10:09:18.009Z,6.43
2018-12-25T10:10:16.671Z,6.44
2018-12-25T10:11:15.187Z,6.38
2018-12-25T10:12:13.960Z,6.51
2018-12-25T10:13:12.694Z,6.33
2018-12-25T10:14:11.224Z,6.43
2018-12-25T10:15:09.794Z,6.38
2018-12-25T10:16:08.355Z,6.37
2018-12-25T10:17:06.875Z,6.46
2018-12-25T10:18:05.403Z,6.4
2018-12-25T10:19:03.945Z,6.3
2018-12-25T10:20:02.469Z,6.33
2018-12-25T10:21:01.028Z,6.33
2018-12-25T10:22:03.007Z,6.33
2018-12-25T10:22:58.521Z,6.41
2018-12-25T10:23:57.042Z,6.41
2018-12-25T10:24:55.724Z,6.25
2018-12-25T10:25:56.087Z,6.25
2018-12-25T10:26:52.834Z,6.28
2018-12-25T10:27:51.389Z,6.36
2018-12-25T10:28:50.025Z,6.4
2018-12-25T10:29:48.557Z,6.48
2018-12-25T10:30:47.160Z,6.38
2018-12-25T10:31:45.890Z,6.41
2018-12-25T10:32:44.614Z,6.36
2018-12-25T10:33:43.171Z,6.4
2018-12-25T10:34:41.833Z,6.33
2018-12-25T10:35:40.432Z,6.37
2018-12-25T10:36:38.964Z,6.43
2018-12-25T10:37:37.505Z,6.34
2018-12-25T10:40:12.560Z,6.31
2018-12-25T10:41:11.105Z,6.37
2018-12-25T10:42:09.662Z,6.44
2018-12-25T10:43:08.189Z,6.44
2018-12-25T10:44:06.722Z,6.43
2018-12-25T10:45:05.251Z,6.43
2018-12-25T10:46:03.782Z,6.46
2018-12-25T10:47:02.363Z,6.46
2018-12-25T10:48:00.908Z,6.52
2018-12-25T10:48:59.490Z,6.56
2018-12-25T10:49:58.185Z,6.4
2018-12-25T10:50:56.895Z,6.48
2018-12-25T10:51:55.665Z,6.52
2018-12-25T10:52:54.379Z,6.58
2018-12-25T10:53:52.937Z,6.59
2018-12-25T10:54:51.449Z,6.69
2018-12-25T10:55:49.962Z,6.73
2018-12-25T10:56:48.532Z,6.58
2018-12-25T10:57:47.078Z,6.73
2018-12-25T10:58:45.700Z,6.77
2018-12-25T10:59:44.363Z,6.67
2018-12-25T11:00:42.890Z,6.66
2018-12-25T11:01:41.433Z,6.71
2018-12-25T11:02:40.384Z,6.58
2018-12-25T11:03:38.923Z,6.64
2018-12-25T11:04:37.459Z,6.67
2018-12-25T11:05:36.084Z,6.69
2018-12-25T11:06:34.628Z,6.74
2018-12-25T11:07:33.154Z,6.62
2018-12-25T11:08:31.671Z,6.61
2018-12-25T11:09:30.854Z,6.49
2018-12-25T11:10:29.398Z,6.64
2018-12-25T11:11:28.118Z,6.77
2018-12-25T11:12:26.722Z,6.77
2018-12-25T11:13:25.261Z,6.84
2018-12-25T11:14:23.818Z,6.76
2018-12-25T11:15:22.301Z,6.8
2018-12-25T11:16:20.858Z,6.89
2018-12-25T11:17:19.379Z,6.85
2018-12-25T11:18:17.893Z,6.95
2018-12-25T11:19:16.440Z,7.06
2018-12-25T11:20:14.981Z,6.98
2018-12-25T11:21:13.601Z,6.87
2018-12-25T11:23:54.203Z,7.09
2018-12-25T11:24:52.728Z,7.07
2018-12-25T11:25:51.288Z,7.03
2018-12-25T11:26:49.801Z,6.89
2018-12-25T11:27:48.335Z,6.69
2018-12-25T11:28:46.886Z,6.77
2018-12-25T11:29:45.421Z,6.69
2018-12-25T11:30:43.961Z,6.67
2018-12-25T11:31:42.522Z,6.79
2018-12-25T11:32:41.034Z,6.74
2018-12-25T11:33:39.613Z,6.8
2018-12-25T11:34:38.347Z,6.81
2018-12-25T11:35:36.893Z,6.95
2018-12-25T11:36:35.451Z,7.06
2018-12-25T11:37:34.302Z,7.07
2018-12-25T11:38:32.852Z,7.12
2018-12-25T11:39:31.381Z,7.2
2018-12-25T11:40:30.053Z,7.15
2018-12-25T11:41:28.612Z,7.06
2018-12-25T11:42:27.161Z,7.13
2018-12-25T11:43:25.697Z,7.15
2018-12-25T11:44:24.207Z,7.23
2018-12-25T11:45:22.755Z,7.21
2018-12-25T11:46:21.297Z,7.27
2018-12-25T11:47:19.858Z,7.28
2018-12-25T11:48:18.556Z,7.34
2018-12-25T11:49:17.039Z,7.28
2018-12-25T11:50:15.570Z,7.32
2018-12-25T11:51:14.214Z,7.28
2018-12-25T11:52:12.893Z,7.35
2018-12-25T11:53:11.503Z,7.24
2018-12-25T11:54:10.192Z,7.25
2018-12-25T11:55:08.898Z,7.31
2018-12-25T11:56:07.425Z,7.31
2018-12-25T11:57:05.914Z,7.39
2018-12-25T11:58:04.519Z,7.4
2018-12-25T11:59:03.080Z,7.4
2018-12-25T12:00:01.701Z,7.42
2018-12-25T12:01:00.587Z,7.35
2018-12-25T12:01:59.138Z,7.37
2018-12-25T12:02:57.725Z,7.46
2018-12-25T12:03:56.410Z,7.43
2018-12-25T12:04:54.963Z,7.46
2018-12-25T12:05:53.496Z,7.43
2018-12-25T12:06:52.081Z,7.39
2018-12-25T12:07:50.643Z,7.45
2018-12-25T12:08:49.148Z,7.49
2018-12-25T12:09:47.734Z,7.39
2018-12-25T12:10:46.470Z,7.42
2018-12-25T12:11:45.034Z,7.52
2018-12-25T12:12:43.842Z,7.5
2018-12-25T12:13:42.597Z,7.52
2018-12-25T12:14:41.117Z,7.53
2018-12-25T12:15:39.670Z,7.55
2018-12-25T12:16:38.232Z,7.58
2018-12-25T12:17:36.759Z,7.61
2018-12-25T12:18:35.272Z,7.57
2018-12-25T12:20:36.024Z,7.68
2018-12-25T12:21:35.521Z,7.67
2018-12-25T12:22:37.023Z,7.67
2018-12-25T12:23:32.672Z,7.69
2018-12-25T12:24:31.177Z,7.61
2018-12-25T12:25:29.693Z,7.75
2018-12-25T12:26:28.241Z,7.68
2018-12-25T12:27:26.862Z,7.61
2018-12-25T12:28:25.377Z,7.71
2018-12-25T12:29:23.945Z,7.75
2018-12-25T12:30:22.542Z,7.75
2018-12-25T12:31:21.088Z,7.68
2018-12-25T12:32:19.612Z,7.69
2018-12-25T12:33:18.550Z,7.83
2018-12-25T12:34:17.067Z,7.82
2018-12-25T12:35:15.674Z,7.85
2018-12-25T12:36:14.328Z,7.83
2018-12-25T12:37:12.882Z,7.9
2018-12-25T12:38:11.420Z,7.93
2018-12-25T12:39:09.951Z,8.01
2018-12-25T12:40:08.496Z,8.05
2018-12-25T12:41:07.032Z,8.07
2018-12-25T12:42:05.554Z,8.07
2018-12-25T12:43:04.117Z,8.1
2018-12-25T12:44:02.699Z,8.05
2018-12-25T12:45:01.260Z,8.08
2018-12-25T12:45:59.887Z,8.11
2018-12-25T12:46:58.641Z,7.92
2018-12-25T12:47:57.160Z,8.01
2018-12-25T12:48:55.699Z,7.93
2018-12-25T12:49:54.483Z,7.89
2018-12-25T12:50:53.056Z,7.8
2018-12-25T12:51:51.556Z,7.93
2018-12-25T12:52:50.160Z,7.89
2018-12-25T12:53:48.689Z,7.92
2018-12-25T12:54:47.207Z,7.92
2018-12-25T12:55:45.707Z,7.89
2018-12-25T12:56:44.269Z,8.02
2018-12-25T12:57:42.856Z,8.01
2018-12-25T12:58:41.434Z,8.1
2018-12-25T12:59:40.049Z,8.07
2018-12-25T13:00:38.765Z,8.01
2018-12-25T13:01:37.263Z,8.02
2018-12-25T13:05:16.105Z,8
2018-12-25T13:06:14.761Z,8.05
2018-12-25T13:07:13.388Z,8.11
2018-12-25T13:08:12.147Z,8.02
2018-12-25T13:09:10.901Z,8.05
2018-12-25T13:10:09.666Z,8.02
2018-12-25T13:11:08.249Z,8.01
2018-12-25T13:12:06.834Z,7.97
2018-12-25T13:13:05.405Z,7.92
2018-12-25T13:14:03.947Z,8.01
2018-12-25T13:15:02.499Z,7.95
2018-12-25T13:16:00.989Z,8
2018-12-25T13:16:59.536Z,7.97
2018-12-25T13:17:58.142Z,7.89
2018-12-25T13:18:56.689Z,8.02
2018-12-25T13:19:55.217Z,8.02
2018-12-25T13:20:53.943Z,7.93
2018-12-25T13:21:52.764Z,7.95
2018-12-25T13:24:15.483Z,8.07
2018-12-25T13:25:14.321Z,8.02
2018-12-25T13:26:13.067Z,7.86
2018-12-25T13:27:11.650Z,7.93
2018-12-25T13:28:10.351Z,8.01
2018-12-25T13:29:08.903Z,7.9
2018-12-25T13:30:07.425Z,7.9
2018-12-25T13:31:06.119Z,7.85
2018-12-25T13:32:04.666Z,7.97
2018-12-25T13:33:03.240Z,7.93
2018-12-25T13:34:01.979Z,7.89